createdAt,value
2019-03-19T00:01:36.108Z,70.20
2019-03-19T00:05:41.789Z,71.20
2019-03-19T00:09:47.449Z,71.40
2019-03-19T00:13:53.130Z,72.50
2019-03-19T00:17:58.839Z,74.70
2019-03-19T00:22:04.599Z,77.30
2019-03-19T00:26:10.309Z,71.50
2019-03-19T00:30:17.896Z,71.30
2019-03-19T00:34:24.551Z,70.00
2019-03-19T00:38:30.307Z,70.50
2019-03-19T00:42:37.059Z,71.00
2019-03-19T00:46:43.844Z,72.60
2019-03-19T00:50:49.530Z,75.20
2019-03-19T00:54:55.203Z,72.10
2019-03-19T00:59:00.889Z,72.30
2019-03-19T01:03:06.644Z,71.40
2019-03-19T01:07:12.332Z,69.00
2019-03-19T01:11:18.151Z,70.00
2019-03-19T01:15:23.834Z,73.00
2019-03-19T01:19:29.524Z,74.70
2019-03-19T01:23:35.204Z,67.50
2019-03-19T01:27:40.948Z,69.30
2019-03-19T01:31:46.639Z,69.80
2019-03-19T01:35:52.357Z,72.60
2019-03-19T01:40:01.338Z,72.70
2019-03-19T01:44:08.033Z,67.50
2019-03-19T01:48:13.700Z,67.70
2019-03-19T01:52:19.443Z,67.30
2019-03-19T01:56:25.124Z,67.50
2019-03-19T02:00:30.885Z,67.50
2019-03-19T02:04:37.528Z,68.20
2019-03-19T02:08:43.190Z,69.10
2019-03-19T02:12:48.866Z,72.90
2019-03-19T02:16:54.548Z,72.50
2019-03-19T02:21:00.288Z,73.70
2019-03-19T02:25:10.401Z,73.00
2019-03-19T02:29:16.089Z,74.20
2019-03-19T02:33:21.769Z,71.90
2019-03-19T02:37:27.663Z,78.00
2019-03-19T02:41:33.460Z,75.90
2019-03-19T02:45:39.111Z,75.50
2019-03-19T02:49:44.787Z,74.80
2019-03-19T02:53:50.522Z,70.70
2019-03-19T02:57:57.185Z,71.40
2019-03-19T03:02:02.897Z,77.50
2019-03-19T03:06:08.569Z,73.70
2019-03-19T03:10:15.080Z,72.30
2019-03-19T03:14:20.767Z,76.90
2019-03-19T03:18:26.449Z,72.80
2019-03-19T03:22:33.196Z,77.00
2019-03-19T03:26:47.415Z,77.00
2019-03-19T03:30:46.298Z,71.50
2019-03-19T03:34:52.077Z,73.60
2019-03-19T03:38:57.723Z,71.90
2019-03-19T03:43:03.482Z,75.50
2019-03-19T03:47:09.178Z,72.90
2019-03-19T03:51:14.858Z,73.40
2019-03-19T03:55:21.268Z,73.70
2019-03-19T03:59:26.946Z,74.20
2019-03-19T04:03:32.711Z,77.60
2019-03-19T04:07:38.403Z,74.40
2019-03-19T04:11:44.079Z,73.20
2019-03-19T04:15:49.764Z,69.90
2019-03-19T04:19:55.449Z,73.60
2019-03-19T04:24:01.359Z,75.30
2019-03-19T04:28:07.072Z,72.50
2019-03-19T04:32:12.747Z,73.90
2019-03-19T04:36:18.474Z,72.50
2019-03-19T04:40:24.188Z,71.50
2019-03-19T04:44:29.845Z,71.20
2019-03-19T04:48:35.539Z,74.90
2019-03-19T04:52:41.223Z,73.90
2019-03-19T04:56:46.905Z,72.10
2019-03-19T05:00:52.571Z,71.60
2019-03-19T05:04:58.370Z,73.40
2019-03-19T05:09:05.629Z,73.40
2019-03-19T05:13:11.321Z,76.20
2019-03-19T05:17:17.008Z,75.20
2019-03-19T05:21:22.713Z,75.70
2019-03-19T05:25:28.386Z,75.30
2019-03-19T05:29:35.700Z,73.90
2019-03-19T05:33:41.409Z,76.70
2019-03-19T05:37:47.161Z,74.20
2019-03-19T05:41:52.820Z,74.20
2019-03-19T05:45:58.497Z,70.20
2019-03-19T05:50:05.603Z,69.80
2019-03-19T05:54:14.610Z,71.30
2019-03-19T05:58:18.869Z,76.60
2019-03-19T06:02:24.543Z,73.50
2019-03-19T06:06:30.227Z,71.90
2019-03-19T06:10:35.910Z,73.70
2019-03-19T06:14:41.599Z,72.30
2019-03-19T06:18:47.275Z,69.70
2019-03-19T06:22:52.955Z,68.60
2019-03-19T06:26:58.655Z,68.90
2019-03-19T06:31:04.472Z,71.90
2019-03-19T06:35:12.102Z,73.60
2019-03-19T06:39:17.778Z,66.30
2019-03-19T06:43:23.470Z,68.60
2019-03-19T06:47:29.173Z,66.40
2019-03-19T06:51:34.849Z,65.70
2019-03-19T06:55:40.540Z,65.50
2019-03-19T06:59:46.208Z,66.00
2019-03-19T07:03:51.962Z,65.80
2019-03-19T07:07:57.644Z,65.50
2019-03-19T07:12:03.465Z,65.20
2019-03-19T07:16:09.169Z,64.20
2019-03-19T07:20:25.772Z,65.70
2019-03-19T07:24:31.428Z,64.50
2019-03-19T07:28:37.116Z,66.10
2019-03-19T07:32:42.816Z,66.10
2019-03-19T07:36:48.492Z,64.20
2019-03-19T07:40:54.160Z,65.60
2019-03-19T07:44:59.846Z,64.00
2019-03-19T07:49:05.610Z,59.30
2019-03-19T07:53:11.345Z,54.10
2019-03-19T07:57:17.035Z,52.20
2019-03-19T08:01:24.603Z,52.70
2019-03-19T08:05:33.249Z,49.50
2019-03-19T08:09:37.639Z,47.40
2019-03-19T08:13:43.356Z,48.40
2019-03-19T08:17:49.102Z,51.00
2019-03-19T08:21:54.734Z,49.40
2019-03-19T08:26:00.450Z,47.60
2019-03-19T08:30:19.900Z,45.20
2019-03-19T08:34:25.579Z,43.40
2019-03-19T08:38:31.280Z,42.80
2019-03-19T08:42:36.960Z,40.20
2019-03-19T08:46:42.645Z,42.20
2019-03-19T08:50:49.419Z,45.90
2019-03-19T08:54:55.100Z,44.90
2019-03-19T08:59:05.746Z,46.00
2019-03-19T09:03:08.170Z,41.60
2019-03-19T09:07:13.866Z,40.10
2019-03-19T09:11:19.566Z,42.80
2019-03-19T09:15:28.078Z,38.90
2019-03-19T09:19:34.133Z,37.00
2019-03-19T09:23:39.827Z,37.20
2019-03-19T09:27:45.597Z,40.90
2019-03-19T09:31:51.315Z,45.00
2019-03-19T09:35:57.105Z,46.50
2019-03-19T09:40:02.809Z,50.40
2019-03-19T09:44:08.460Z,50.00
2019-03-19T09:48:14.149Z,52.70
2019-03-19T09:52:19.852Z,54.50
2019-03-19T09:56:25.548Z,45.60
2019-03-19T10:00:31.244Z,45.00
2019-03-19T10:04:38.749Z,42.70
2019-03-19T10:08:44.510Z,42.70
2019-03-19T10:12:50.349Z,38.40
2019-03-19T10:16:56.054Z,38.20
2019-03-19T10:21:01.731Z,36.00
2019-03-19T10:25:12.329Z,33.90
2019-03-19T10:29:18.025Z,31.70
2019-03-19T10:33:23.723Z,33.70
2019-03-19T10:37:29.479Z,30.70
2019-03-19T10:41:35.158Z,33.30
2019-03-19T10:45:40.855Z,37.40
2019-03-19T10:49:46.551Z,35.10
2019-03-19T10:53:52.257Z,38.90
2019-03-19T10:57:57.996Z,37.20
2019-03-19T11:06:54.699Z,41.00
2019-03-19T11:11:00.386Z,41.90
2019-03-19T11:15:13.229Z,31.80
2019-03-19T11:19:18.934Z,27.60
2019-03-19T11:23:24.637Z,25.80
2019-03-19T11:27:30.662Z,25.20
2019-03-19T11:31:36.360Z,24.90
2019-03-19T11:35:42.059Z,24.50
2019-03-19T11:39:47.727Z,23.20
2019-03-19T11:47:43.523Z,22.40
2019-03-19T11:51:47.754Z,28.60
2019-03-19T11:55:53.445Z,32.80
2019-03-19T11:59:59.114Z,31.20
2019-03-19T12:04:04.951Z,32.40
2019-03-19T12:08:10.706Z,34.70
2019-03-19T12:12:16.406Z,31.40
2019-03-19T12:16:22.097Z,30.20
2019-03-19T12:20:27.782Z,25.50
2019-03-19T12:24:33.501Z,24.80
2019-03-19T12:28:40.038Z,29.20
2019-03-19T12:32:47.571Z,28.80
2019-03-19T12:36:53.287Z,27.20
2019-03-19T12:40:58.971Z,28.30
2019-03-19T12:45:08.075Z,27.40
2019-03-19T12:49:13.754Z,25.60
2019-03-19T12:53:19.448Z,24.40
2019-03-19T12:57:26.663Z,24.70
2019-03-19T13:01:32.385Z,23.10
2019-03-19T13:05:38.126Z,23.30
2019-03-19T13:09:43.822Z,25.30
2019-03-19T13:13:49.585Z,25.90
2019-03-19T13:17:55.386Z,25.00
2019-03-19T13:22:01.083Z,25.00
2019-03-19T13:26:06.902Z,28.90
2019-03-19T13:30:16.099Z,30.00
2019-03-19T13:34:21.799Z,29.20
2019-03-19T13:38:27.457Z,24.80
2019-03-19T13:42:33.191Z,22.90
2019-03-19T13:46:38.848Z,22.90
2019-03-19T13:50:44.532Z,25.60
2019-03-19T13:54:50.223Z,28.90
2019-03-19T13:58:55.925Z,25.80
2019-03-19T14:03:01.595Z,23.00
2019-03-19T14:07:07.305Z,21.50
2019-03-19T14:11:13.022Z,21.90
2019-03-19T14:15:24.286Z,22.90
2019-03-19T14:19:29.958Z,22.30
2019-03-19T14:23:35.650Z,23.00
2019-03-19T14:27:41.349Z,22.40
2019-03-19T14:31:47.040Z,23.70
2019-03-19T14:35:52.746Z,23.00
2019-03-19T14:39:58.409Z,21.70
2019-03-19T14:44:04.209Z,23.00
2019-03-19T14:48:10.012Z,24.00
2019-03-19T14:52:15.729Z,27.10
2019-03-19T14:56:21.389Z,28.90
2019-03-19T15:00:27.121Z,29.20
2019-03-19T15:04:32.806Z,29.00
2019-03-19T15:08:38.507Z,30.60
2019-03-19T15:12:44.274Z,30.70
2019-03-19T15:16:49.947Z,31.50
2019-03-19T15:20:55.640Z,32.60
2019-03-19T15:25:01.354Z,30.90
2019-03-19T15:29:07.022Z,31.20
2019-03-19T15:33:12.714Z,29.30
2019-03-19T15:37:18.494Z,30.10
2019-03-19T15:41:24.292Z,28.80
2019-03-19T15:45:31.791Z,29.10
2019-03-19T15:49:38.542Z,33.80
2019-03-19T15:53:45.316Z,32.80
2019-03-19T15:57:51.018Z,29.60
2019-03-19T16:01:56.811Z,29.60
2019-03-19T16:06:02.555Z,32.10
2019-03-19T16:10:14.016Z,34.00
2019-03-19T16:14:19.710Z,30.40
2019-03-19T16:18:25.419Z,32.00
2019-03-19T16:22:31.130Z,35.70
2019-03-19T16:26:36.837Z,32.10
2019-03-19T16:30:42.533Z,30.50
2019-03-19T16:34:48.205Z,30.80
2019-03-19T16:38:53.973Z,35.80
2019-03-19T16:42:59.672Z,33.70
2019-03-19T16:47:05.584Z,32.80
2019-03-19T16:51:15.529Z,33.10
2019-03-19T16:55:22.525Z,35.40
2019-03-19T16:59:28.230Z,34.10
2019-03-19T17:03:33.930Z,33.60
2019-03-19T17:07:39.625Z,39.40
2019-03-19T17:11:45.384Z,34.70
2019-03-19T17:15:52.178Z,40.00
2019-03-19T17:19:57.873Z,39.00
2019-03-19T17:24:03.571Z,38.80
2019-03-19T17:28:09.340Z,35.90
2019-03-19T17:32:15.121Z,34.50
2019-03-19T17:36:20.799Z,35.40
2019-03-19T17:40:26.510Z,36.30
2019-03-19T17:44:32.198Z,36.00
2019-03-19T17:48:37.911Z,40.40
2019-03-19T17:52:43.683Z,36.30
2019-03-19T17:56:49.369Z,36.10
2019-03-19T18:00:55.853Z,38.60
2019-03-19T18:05:01.535Z,38.90
2019-03-19T18:09:08.484Z,40.20
2019-03-19T18:13:19.905Z,39.50
2019-03-19T18:17:25.621Z,39.00
2019-03-19T18:21:31.318Z,42.90
2019-03-19T18:25:37.371Z,42.30
2019-03-19T18:29:43.056Z,45.30
2019-03-19T18:33:49.276Z,45.10
2019-03-19T18:37:55.056Z,43.10
2019-03-19T18:42:00.840Z,44.00
2019-03-19T18:46:06.670Z,42.80
2019-03-19T18:50:19.686Z,44.80
2019-03-19T18:54:25.354Z,46.00
2019-03-19T18:58:31.073Z,44.20
2019-03-19T19:02:36.824Z,43.60
2019-03-19T19:06:42.507Z,41.30
2019-03-19T19:10:48.232Z,41.40
2019-03-19T19:14:53.982Z,47.40
2019-03-19T19:18:59.655Z,48.00
2019-03-19T19:23:05.452Z,47.90
2019-03-19T19:27:14.744Z,43.60
2019-03-19T19:31:20.123Z,46.80
2019-03-19T19:35:25.971Z,44.00
2019-03-19T19:39:31.676Z,43.50
2019-03-19T19:43:37.407Z,49.00
2019-03-19T19:47:43.166Z,46.10
2019-03-19T19:51:48.885Z,45.10
2019-03-19T19:55:54.587Z,46.70
2019-03-19T20:00:01.912Z,46.50
2019-03-19T20:04:08.374Z,50.40
2019-03-19T20:08:14.032Z,50.40
2019-03-19T20:12:19.727Z,50.10
2019-03-19T20:16:25.491Z,50.70
2019-03-19T20:36:18.575Z,52.40
2019-03-19T20:41:18.559Z,52.00
2019-03-19T20:50:21.448Z,50.80
2019-03-19T20:59:20.172Z,51.00
2019-03-19T21:04:17.108Z,54.70
2019-03-19T21:08:22.803Z,54.10
2019-03-19T21:12:31.364Z,53.90
2019-03-19T21:17:18.106Z,52.50
2019-03-19T21:21:23.828Z,46.30
2019-03-19T21:26:17.907Z,50.40
2019-03-19T21:30:24.794Z,55.90
2019-03-19T21:35:22.128Z,56.40
2019-03-19T21:39:27.844Z,57.10
2019-03-19T21:44:18.771Z,54.20
2019-03-19T21:48:24.608Z,55.80
2019-03-19T21:53:18.445Z,56.00
2019-03-19T21:57:24.230Z,58.70
2019-03-19T22:07:19.333Z,57.40
2019-03-19T22:11:25.091Z,55.40
2019-03-19T22:15:30.867Z,56.00
2019-03-19T22:20:18.748Z,56.70
2019-03-19T22:24:24.437Z,59.60
2019-03-19T22:29:18.592Z,55.00
2019-03-19T22:33:24.355Z,58.90
2019-03-19T22:38:15.632Z,60.90
2019-03-19T22:42:22.966Z,57.60
2019-03-19T22:46:28.665Z,57.70
2019-03-19T22:50:34.384Z,61.70
2019-03-19T22:54:40.057Z,58.50
2019-03-19T22:58:45.754Z,61.80
2019-03-19T23:02:51.943Z,57.90
2019-03-19T23:06:57.801Z,58.70
2019-03-19T23:11:03.580Z,63.10
2019-03-19T23:15:13.468Z,58.90
2019-03-19T23:19:19.153Z,62.20
2019-03-19T23:23:24.961Z,61.20
2019-03-19T23:27:30.652Z,60.00
2019-03-19T23:31:36.325Z,64.40
2019-03-19T23:35:41.985Z,61.00
2019-03-19T23:39:47.658Z,62.80
2019-03-19T23:43:53.442Z,57.80
2019-03-19T23:47:59.138Z,59.50
2019-03-19T23:52:04.816Z,63.50
2019-03-19T23:56:10.538Z,57.60
